createdAt,value
2019-05-21T00:00:45.597Z,999.98
2019-05-21T00:01:45.686Z,1000.02
2019-05-21T00:02:45.608Z,1000.04
2019-05-21T00:03:45.563Z,1000.00
2019-05-21T00:04:45.548Z,999.99
2019-05-21T00:05:45.573Z,1000.01
2019-05-21T00:06:45.534Z,1000.02
2019-05-21T00:07:45.548Z,1000.03
2019-05-21T00:08:45.506Z,1000.03
2019-05-21T00:09:45.494Z,1000.02
2019-05-21T00:10:45.480Z,999.99
2019-05-21T00:11:45.470Z,999.99
2019-05-21T00:12:45.494Z,1000.04
2019-05-21T00:13:45.480Z,1000.02
2019-05-21T00:14:45.432Z,1000.05
2019-05-21T00:15:45.421Z,1000.05
2019-05-21T00:16:45.412Z,999.98
2019-05-21T00:17:45.405Z,999.96
2019-05-21T00:18:45.413Z,1000.01
2019-05-21T00:19:45.382Z,999.94
2019-05-21T00:20:45.372Z,999.95
2019-05-21T00:21:45.365Z,999.92
2019-05-21T00:22:45.339Z,999.95
2019-05-21T00:23:45.364Z,999.97
2019-05-21T00:24:45.323Z,1000.00
2019-05-21T00:25:45.318Z,1000.02
2019-05-21T00:26:45.298Z,1000.08
2019-05-21T00:27:45.331Z,1000.15
2019-05-21T00:28:45.301Z,1000.07
2019-05-21T00:29:45.263Z,1000.14
2019-05-21T00:30:45.263Z,1000.16
2019-05-21T00:31:45.247Z,1000.13
2019-05-21T00:32:45.226Z,1000.11
2019-05-21T00:33:45.244Z,1000.12
2019-05-21T00:34:45.204Z,1000.06
2019-05-21T00:35:45.199Z,1000.11
2019-05-21T00:36:45.184Z,1000.08
2019-05-21T00:37:45.177Z,1000.08
2019-05-21T00:38:45.202Z,1000.03
2019-05-21T00:39:45.148Z,1000.10
2019-05-21T00:40:45.149Z,1000.13
2019-05-21T00:41:45.142Z,1000.13
2019-05-21T00:42:45.120Z,1000.16
2019-05-21T00:43:45.146Z,1000.16
2019-05-21T00:44:45.098Z,1000.11
2019-05-21T00:45:45.082Z,1000.17
2019-05-21T00:46:45.067Z,1000.09
2019-05-21T00:47:45.055Z,1000.15
2019-05-21T00:48:45.160Z,1000.18
2019-05-21T00:49:45.036Z,1000.13
2019-05-21T00:50:45.050Z,1000.13
2019-05-21T00:51:45.019Z,1000.12
2019-05-21T00:52:45.007Z,1000.11
2019-05-21T00:53:45.019Z,1000.09
2019-05-21T00:54:45.003Z,1000.07
2019-05-21T00:55:44.969Z,1000.09
2019-05-21T00:56:44.960Z,1000.07
2019-05-21T00:57:44.942Z,1000.09
2019-05-21T00:58:44.940Z,1000.04
2019-05-21T00:59:44.960Z,1000.07
2019-05-21T01:00:44.939Z,1000.04
2019-05-21T01:01:44.895Z,1000.05
2019-05-21T01:02:44.994Z,1000.05
2019-05-21T01:03:44.869Z,1000.07
2019-05-21T01:04:59.730Z,999.99
2019-05-21T01:05:45.851Z,999.97
2019-05-21T01:06:44.932Z,999.97
2019-05-21T01:07:44.831Z,1000.03
2019-05-21T01:08:44.851Z,1000.00
2019-05-21T01:09:44.833Z,1000.00
2019-05-21T01:10:44.837Z,1000.00
2019-05-21T01:11:44.792Z,999.99
2019-05-21T01:12:44.774Z,999.97
2019-05-21T01:13:44.760Z,1000.00
2019-05-21T01:14:44.851Z,999.97
2019-05-21T01:15:44.740Z,1000.00
2019-05-21T01:16:44.759Z,1000.00
2019-05-21T01:17:44.714Z,999.95
2019-05-21T01:18:44.703Z,999.97
2019-05-21T01:19:44.716Z,999.96
2019-05-21T01:20:44.682Z,999.92
2019-05-21T01:21:44.668Z,999.93
2019-05-21T01:22:44.661Z,999.94
2019-05-21T01:23:44.648Z,999.97
2019-05-21T01:24:44.662Z,999.99
2019-05-21T01:25:44.623Z,999.95
2019-05-21T01:26:44.615Z,999.97
2019-05-21T01:27:44.606Z,999.96
2019-05-21T01:28:44.593Z,999.92
2019-05-21T01:29:44.611Z,999.93
2019-05-21T01:30:44.567Z,999.94
2019-05-21T01:31:44.557Z,999.89
2019-05-21T01:32:44.555Z,999.93
2019-05-21T01:33:44.593Z,999.91
2019-05-21T01:34:44.528Z,999.94
2019-05-21T01:35:44.544Z,999.95
2019-05-21T01:36:44.504Z,999.91
2019-05-21T01:37:44.500Z,999.92
2019-05-21T01:38:44.498Z,999.94
2019-05-21T01:39:44.470Z,999.94
2019-05-21T01:40:44.484Z,999.97
2019-05-21T01:41:44.446Z,999.90
2019-05-21T01:42:44.434Z,999.91
2019-05-21T01:43:44.424Z,999.94
2019-05-21T01:44:44.416Z,999.91
2019-05-21T01:45:44.434Z,999.94
2019-05-21T01:46:44.394Z,1000.01
2019-05-21T01:47:44.379Z,999.99
2019-05-21T01:48:44.365Z,999.99
2019-05-21T01:49:44.373Z,1000.00
2019-05-21T01:50:44.390Z,1000.03
2019-05-21T01:51:44.338Z,1000.03
2019-05-21T01:52:44.323Z,1000.02
2019-05-21T01:53:44.321Z,1000.03
2019-05-21T01:54:44.317Z,1000.04
2019-05-21T01:55:44.318Z,1000.04
2019-05-21T01:56:44.274Z,1000.10
2019-05-21T01:57:44.268Z,1000.12
2019-05-21T01:58:44.257Z,1000.13
2019-05-21T01:59:44.245Z,1000.14
2019-05-21T02:00:44.287Z,1000.14
2019-05-21T02:01:44.270Z,1000.16
2019-05-21T02:02:44.226Z,1000.15
2019-05-21T02:03:44.207Z,1000.14
2019-05-21T02:04:44.193Z,1000.13
2019-05-21T02:05:44.219Z,1000.17
2019-05-21T02:06:44.188Z,1000.12
2019-05-21T02:07:44.156Z,1000.20
2019-05-21T02:08:44.148Z,1000.21
2019-05-21T02:09:44.128Z,1000.21
2019-05-21T02:10:44.199Z,1000.27
2019-05-21T02:11:44.122Z,1000.22
2019-05-21T02:12:44.117Z,1000.23
2019-05-21T02:13:44.098Z,1000.26
2019-05-21T02:14:44.077Z,1000.30
2019-05-21T02:15:44.065Z,1000.28
2019-05-21T02:16:44.081Z,1000.29
2019-05-21T02:17:44.059Z,1000.30
2019-05-21T02:18:44.060Z,1000.32
2019-05-21T02:19:44.036Z,1000.32
2019-05-21T02:20:44.016Z,1000.31
2019-05-21T02:21:44.031Z,1000.31
2019-05-21T02:22:44.020Z,1000.28
2019-05-21T02:23:44.005Z,1000.31
2019-05-21T02:24:43.995Z,1000.34
2019-05-21T02:25:43.960Z,1000.35
2019-05-21T02:26:43.969Z,1000.36
2019-05-21T02:27:43.980Z,1000.38
2019-05-21T02:28:43.930Z,1000.34
2019-05-21T02:29:43.926Z,1000.41
2019-05-21T02:30:43.901Z,1000.38
2019-05-21T02:31:43.924Z,1000.43
2019-05-21T02:32:43.880Z,1000.42
2019-05-21T02:33:43.877Z,1000.38
2019-05-21T02:34:43.858Z,1000.45
2019-05-21T02:35:53.814Z,1000.44
2019-05-21T02:36:44.864Z,1000.38
2019-05-21T02:37:43.825Z,1000.38
2019-05-21T02:38:43.814Z,1000.43
2019-05-21T02:39:43.809Z,1000.39
2019-05-21T02:40:43.790Z,1000.42
2019-05-21T02:41:43.823Z,1000.42
2019-05-21T02:42:43.772Z,1000.43
2019-05-21T02:43:43.771Z,1000.45
2019-05-21T02:44:43.754Z,1000.50
2019-05-21T02:45:43.748Z,1000.43
2019-05-21T02:46:43.766Z,1000.43
2019-05-21T02:47:43.728Z,1000.49
2019-05-21T02:48:43.697Z,1000.45
2019-05-21T02:49:43.690Z,1000.46
2019-05-21T02:50:43.674Z,1000.48
2019-05-21T02:51:43.714Z,1000.49
2019-05-21T02:52:43.663Z,1000.47
2019-05-21T02:53:43.641Z,1000.49
2019-05-21T02:54:43.639Z,1000.47
2019-05-21T02:55:43.622Z,1000.56
2019-05-21T02:56:43.616Z,1000.53
2019-05-21T02:57:43.623Z,1000.46
2019-05-21T02:58:43.587Z,1000.50
2019-05-21T02:59:43.574Z,1000.51
2019-05-21T03:00:43.570Z,1000.49
2019-05-21T03:01:43.553Z,1000.51
2019-05-21T03:02:43.696Z,1000.49
2019-05-21T03:03:43.540Z,1000.49
2019-05-21T03:04:43.658Z,1000.50
2019-05-21T03:05:43.512Z,1000.52
2019-05-21T03:06:43.512Z,1000.49
2019-05-21T03:07:43.486Z,1000.46
2019-05-21T03:08:43.503Z,1000.48
2019-05-21T03:09:43.472Z,1000.48
2019-05-21T03:10:43.457Z,1000.59
2019-05-21T03:11:43.445Z,1000.48
2019-05-21T03:12:43.431Z,1000.49
2019-05-21T03:13:43.450Z,1000.49
2019-05-21T03:14:43.427Z,1000.44
2019-05-21T03:15:43.403Z,1000.45
2019-05-21T03:16:43.382Z,1000.47
2019-05-21T03:17:43.376Z,1000.53
2019-05-21T03:18:43.392Z,1000.48
2019-05-21T03:19:43.351Z,1000.52
2019-05-21T03:20:43.342Z,1000.56
2019-05-21T03:21:43.329Z,1000.57
2019-05-21T03:22:43.351Z,1000.58
2019-05-21T03:23:43.332Z,1000.60
2019-05-21T03:24:43.298Z,1000.65
2019-05-21T03:25:43.290Z,1000.68
2019-05-21T03:26:43.277Z,1000.66
2019-05-21T03:27:43.264Z,1000.69
2019-05-21T03:28:43.282Z,1000.73
2019-05-21T03:29:43.238Z,1000.73
2019-05-21T03:30:43.239Z,1000.77
2019-05-21T03:31:43.229Z,1000.76
2019-05-21T03:32:43.212Z,1000.76
2019-05-21T03:33:43.221Z,1000.72
2019-05-21T03:34:43.183Z,1000.77
2019-05-21T03:35:43.176Z,1000.76
2019-05-21T03:36:43.164Z,1000.76
2019-05-21T03:37:43.160Z,1000.77
2019-05-21T03:38:43.180Z,1000.73
2019-05-21T03:39:43.125Z,1000.67
2019-05-21T03:40:43.116Z,1000.72
2019-05-21T03:41:43.107Z,1000.73
2019-05-21T03:42:43.094Z,1000.73
2019-05-21T03:43:43.088Z,1000.72
2019-05-21T03:44:58.318Z,1000.75
2019-05-21T03:45:44.060Z,1000.73
2019-05-21T03:46:43.047Z,1000.75
2019-05-21T03:47:43.036Z,1000.77
2019-05-21T03:48:43.032Z,1000.75
2019-05-21T03:49:43.072Z,1000.72
2019-05-21T03:50:43.011Z,1000.76
2019-05-21T03:51:43.015Z,1000.77
2019-05-21T03:52:42.990Z,1000.80
2019-05-21T03:53:42.998Z,1000.77
2019-05-21T03:54:42.987Z,1000.80
2019-05-21T03:55:42.965Z,1000.77
2019-05-21T03:56:42.938Z,1000.75
2019-05-21T03:57:42.930Z,1000.80
2019-05-21T03:58:42.948Z,1000.77
2019-05-21T03:59:42.930Z,1000.78
2019-05-21T04:00:42.921Z,1000.76
2019-05-21T04:01:42.885Z,1000.76
2019-05-21T04:02:42.874Z,1000.75
2019-05-21T04:03:42.862Z,1000.75
2019-05-21T04:04:42.874Z,1000.69
2019-05-21T04:05:42.834Z,1000.73
2019-05-21T04:06:51.930Z,1000.74
2019-05-21T04:07:43.812Z,1000.67
2019-05-21T04:08:42.803Z,1000.66
2019-05-21T04:09:43.022Z,1000.68
2019-05-21T04:10:42.779Z,1000.67
2019-05-21T04:11:42.895Z,1000.68
2019-05-21T04:12:42.761Z,1000.66
2019-05-21T04:13:42.858Z,1000.70
2019-05-21T04:14:42.772Z,1000.71
2019-05-21T04:15:42.726Z,1000.65
2019-05-21T04:16:42.721Z,1000.78
2019-05-21T04:17:42.766Z,1000.77
2019-05-21T04:18:42.695Z,1000.80
2019-05-21T04:19:42.689Z,1000.84
2019-05-21T04:20:42.701Z,1000.86
2019-05-21T04:21:42.743Z,1000.86
2019-05-21T04:22:42.647Z,1000.87
2019-05-21T04:23:42.683Z,1000.83
2019-05-21T04:24:42.627Z,1000.84
2019-05-21T04:25:42.675Z,1000.86
2019-05-21T04:26:42.606Z,1000.84
2019-05-21T04:27:42.664Z,1000.82
2019-05-21T04:28:42.584Z,1000.81
2019-05-21T04:29:42.571Z,1000.83
2019-05-21T04:30:42.586Z,1000.82
2019-05-21T04:31:42.555Z,1000.78
2019-05-21T04:32:42.540Z,1000.80
2019-05-21T04:33:42.528Z,1000.78
2019-05-21T04:34:42.513Z,1000.83
2019-05-21T04:35:42.528Z,1000.85
2019-05-21T04:36:42.498Z,1000.81
2019-05-21T04:37:42.492Z,1000.80
2019-05-21T04:38:42.474Z,1000.76
2019-05-21T04:39:42.501Z,1000.84
2019-05-21T04:40:42.494Z,1000.87
2019-05-21T04:41:42.442Z,1000.89
2019-05-21T04:42:42.430Z,1000.88
2019-05-21T04:43:42.425Z,1000.87
2019-05-21T04:44:42.405Z,1000.86
2019-05-21T04:45:42.418Z,1000.92
2019-05-21T04:46:42.384Z,1000.93
2019-05-21T04:47:42.374Z,1000.94
2019-05-21T04:48:42.365Z,1000.98
2019-05-21T04:49:42.353Z,1001.01
2019-05-21T04:50:42.375Z,1001.01
2019-05-21T04:51:42.333Z,1001.03
2019-05-21T04:52:42.320Z,1001.04
2019-05-21T04:53:42.323Z,1001.05
2019-05-21T04:54:42.294Z,1001.02
2019-05-21T04:55:42.320Z,1001.05
2019-05-21T04:56:42.279Z,1001.00
2019-05-21T04:57:42.259Z,1001.03
2019-05-21T04:58:42.254Z,1001.07
2019-05-21T04:59:42.238Z,1001.03
2019-05-21T05:00:42.257Z,1001.04
2019-05-21T05:01:42.245Z,1001.06
2019-05-21T05:02:42.205Z,1001.04
2019-05-21T05:03:42.202Z,1000.98
2019-05-21T05:04:42.199Z,1001.00
2019-05-21T05:05:42.198Z,1001.01
2019-05-21T05:06:42.185Z,1000.99
2019-05-21T05:07:42.151Z,1001.00
2019-05-21T05:08:42.142Z,1001.03
2019-05-21T05:09:42.130Z,1001.06
2019-05-21T05:10:42.116Z,1001.02
2019-05-21T05:11:42.142Z,1000.97
2019-05-21T05:12:42.094Z,1001.03
2019-05-21T05:13:42.093Z,1001.02
2019-05-21T05:14:42.072Z,1001.02
2019-05-21T05:15:42.086Z,1001.02
2019-05-21T05:16:42.114Z,1001.05
2019-05-21T05:17:42.051Z,1001.00
2019-05-21T05:18:42.032Z,1000.99
2019-05-21T05:19:42.031Z,1001.00
2019-05-21T05:20:42.077Z,1001.00
2019-05-21T05:21:42.024Z,1001.01
2019-05-21T05:22:42.023Z,1001.09
2019-05-21T05:23:41.973Z,1001.04
2019-05-21T05:24:41.962Z,1001.06
2019-05-21T05:25:41.953Z,1001.04
2019-05-21T05:26:42.033Z,1001.10
2019-05-21T05:27:41.963Z,1001.13
2019-05-21T05:28:41.945Z,1001.13
2019-05-21T05:29:41.919Z,1001.13
2019-05-21T05:30:41.946Z,1001.23
2019-05-21T05:31:41.890Z,1001.25
2019-05-21T05:32:41.947Z,1001.27
2019-05-21T05:33:41.867Z,1001.26
2019-05-21T05:34:41.859Z,1001.28
2019-05-21T05:35:41.848Z,1001.27
2019-05-21T05:36:41.856Z,1001.33
2019-05-21T05:37:45.186Z,1001.31
2019-05-21T05:38:41.839Z,1001.29
2019-05-21T05:39:41.799Z,1001.33
2019-05-21T05:40:41.791Z,1001.36
2019-05-21T05:41:41.774Z,1001.38
2019-05-21T05:42:41.800Z,1001.37
2019-05-21T05:43:41.755Z,1001.43
2019-05-21T05:44:41.749Z,1001.42
2019-05-21T05:45:41.741Z,1001.45
2019-05-21T05:46:41.728Z,1001.48
2019-05-21T05:47:41.749Z,1001.48
2019-05-21T05:48:41.742Z,1001.51
2019-05-21T05:49:41.704Z,1001.42
2019-05-21T05:50:41.695Z,1001.49
2019-05-21T05:51:41.671Z,1001.47
2019-05-21T05:52:41.682Z,1001.51
2019-05-21T05:53:41.645Z,1001.48
2019-05-21T05:54:41.637Z,1001.47
2019-05-21T05:55:41.621Z,1001.47
2019-05-21T05:56:41.605Z,1001.57
2019-05-21T05:57:41.619Z,1001.49
2019-05-21T05:58:41.608Z,1001.50
2019-05-21T05:59:41.587Z,1001.54
2019-05-21T06:00:41.571Z,1001.59
2019-05-21T06:01:41.569Z,1001.55
2019-05-21T06:02:41.597Z,1001.57
2019-05-21T06:03:41.548Z,1001.57
2019-05-21T06:04:41.525Z,1001.53
2019-05-21T06:05:41.516Z,1001.56
2019-05-21T06:06:41.499Z,1001.60
2019-05-21T06:07:41.521Z,1001.56
2019-05-21T06:08:41.522Z,1001.60
2019-05-21T06:09:41.468Z,1001.60
2019-05-21T06:10:41.458Z,1001.56
2019-05-21T06:11:41.451Z,1001.59
2019-05-21T06:12:41.471Z,1001.58
2019-05-21T06:13:41.455Z,1001.61
2019-05-21T06:14:41.411Z,1001.57
2019-05-21T06:15:41.402Z,1001.56
2019-05-21T06:16:41.393Z,1001.59
2019-05-21T06:17:41.379Z,1001.56
2019-05-21T06:18:41.402Z,1001.55
2019-05-21T06:19:41.376Z,1001.53
2019-05-21T06:20:41.357Z,1001.54
2019-05-21T06:21:41.331Z,1001.58
2019-05-21T06:22:41.318Z,1001.58
2019-05-21T06:23:41.340Z,1001.54
2019-05-21T06:24:41.305Z,1001.59
2019-05-21T06:25:41.291Z,1001.56
2019-05-21T06:26:41.272Z,1001.60
2019-05-21T06:27:41.275Z,1001.59
2019-05-21T06:28:41.277Z,1001.64
2019-05-21T06:29:41.250Z,1001.64
2019-05-21T06:30:41.235Z,1001.61
2019-05-21T06:31:41.224Z,1001.68
2019-05-21T06:32:41.210Z,1001.71
2019-05-21T06:33:41.240Z,1001.75
2019-05-21T06:34:41.221Z,1001.69
2019-05-21T06:35:41.179Z,1001.71
2019-05-21T06:36:41.161Z,1001.74
2019-05-21T06:37:41.161Z,1001.72
2019-05-21T06:38:41.149Z,1001.67
2019-05-21T06:39:41.168Z,1001.64
2019-05-21T06:40:41.121Z,1001.65
2019-05-21T06:41:41.114Z,1001.70
2019-05-21T06:42:41.103Z,1001.67
2019-05-21T06:43:41.089Z,1001.68
2019-05-21T06:44:41.108Z,1001.71
2019-05-21T06:45:41.080Z,1001.68
2019-05-21T06:46:41.056Z,1001.72
2019-05-21T06:47:41.043Z,1001.70
2019-05-21T06:48:41.028Z,1001.68
2019-05-21T06:49:41.046Z,1001.76
2019-05-21T06:50:41.010Z,1001.74
2019-05-21T06:51:41.011Z,1001.72
2019-05-21T06:52:41.001Z,1001.79
2019-05-21T06:53:40.974Z,1001.77
2019-05-21T06:54:40.992Z,1001.76
2019-05-21T06:55:40.985Z,1001.82
2019-05-21T06:56:40.945Z,1001.85
2019-05-21T06:57:40.927Z,1001.85
2019-05-21T06:58:40.919Z,1001.87
2019-05-21T06:59:40.933Z,1001.88
2019-05-21T07:00:40.903Z,1001.82
2019-05-21T07:01:40.888Z,1001.88
2019-05-21T07:02:40.878Z,1001.88
2019-05-21T07:03:40.873Z,1001.86
2019-05-21T07:04:40.896Z,1001.85
2019-05-21T07:05:56.094Z,1001.86
2019-05-21T07:06:44.677Z,1001.92
2019-05-21T07:07:40.847Z,1001.93
2019-05-21T07:08:40.817Z,1001.92
2019-05-21T07:09:40.802Z,1001.93
2019-05-21T07:10:40.832Z,1001.93
2019-05-21T07:11:40.771Z,1001.91
2019-05-21T07:12:40.761Z,1001.91
2019-05-21T07:13:40.755Z,1001.91
2019-05-21T07:14:40.750Z,1001.89
2019-05-21T07:15:40.786Z,1001.90
2019-05-21T07:16:40.728Z,1001.94
2019-05-21T07:17:40.707Z,1001.90
2019-05-21T07:18:41.515Z,1001.94
2019-05-21T07:19:40.680Z,1001.95
2019-05-21T07:20:40.712Z,1001.92
2019-05-21T07:21:40.688Z,1001.97
2019-05-21T07:22:40.760Z,1001.94
2019-05-21T07:23:40.637Z,1001.97
2019-05-21T07:24:40.759Z,1001.97
2019-05-21T07:25:40.617Z,1001.96
2019-05-21T07:26:40.797Z,1002.05
2019-05-21T07:27:40.598Z,1002.04
2019-05-21T07:28:40.669Z,1002.02
2019-05-21T07:29:40.574Z,1002.07
2019-05-21T07:30:40.586Z,1002.15
2019-05-21T07:31:40.572Z,1002.13
2019-05-21T07:32:40.549Z,1002.12
2019-05-21T07:33:40.528Z,1002.20
2019-05-21T07:34:40.522Z,1002.17
2019-05-21T07:35:40.565Z,1002.16
2019-05-21T07:36:40.495Z,1002.13
2019-05-21T07:37:40.481Z,1002.18
2019-05-21T07:38:52.620Z,1002.17
2019-05-21T07:39:41.458Z,1002.13
2019-05-21T07:40:40.485Z,1002.19
2019-05-21T07:41:40.468Z,1002.17
2019-05-21T07:42:40.433Z,1002.11
2019-05-21T07:43:40.664Z,1002.13
2019-05-21T07:44:40.409Z,1002.15
2019-05-21T07:45:40.397Z,1002.15
2019-05-21T07:46:40.409Z,1002.11
2019-05-21T07:47:40.374Z,1002.20
2019-05-21T07:48:40.369Z,1002.22
2019-05-21T07:49:40.356Z,1002.27
2019-05-21T07:50:40.341Z,1002.28
2019-05-21T07:51:40.367Z,1002.29
2019-05-21T07:52:40.342Z,1002.39
2019-05-21T07:53:40.311Z,1002.35
2019-05-21T07:54:40.301Z,1002.38
2019-05-21T07:55:40.302Z,1002.41
2019-05-21T07:56:40.304Z,1002.45
2019-05-21T07:57:40.280Z,1002.47
2019-05-21T07:58:40.260Z,1002.50
2019-05-21T07:59:40.237Z,1002.51
2019-05-21T08:00:40.224Z,1002.55
2019-05-21T08:01:40.248Z,1002.59
2019-05-21T08:02:40.216Z,1002.57
2019-05-21T08:03:40.196Z,1002.59
2019-05-21T08:04:40.194Z,1002.60
2019-05-21T08:05:40.201Z,1002.68
2019-05-21T08:06:40.188Z,1002.64
2019-05-21T08:07:40.147Z,1002.65
2019-05-21T08:08:40.140Z,1002.68
2019-05-21T08:09:40.126Z,1002.68
2019-05-21T08:10:40.116Z,1002.66
2019-05-21T08:11:40.131Z,1002.62
2019-05-21T08:12:40.203Z,1002.60
2019-05-21T08:13:40.084Z,1002.60
2019-05-21T08:14:40.075Z,1002.58
2019-05-21T08:15:40.067Z,1002.62
2019-05-21T08:16:40.046Z,1002.55
2019-05-21T08:17:40.084Z,1002.61
2019-05-21T08:18:40.028Z,1002.63
2019-05-21T08:19:40.014Z,1002.60
2019-05-21T08:20:40.012Z,1002.62
2019-05-21T08:21:39.988Z,1002.63
2019-05-21T08:22:40.007Z,1002.58
2019-05-21T08:23:40.032Z,1002.55
2019-05-21T08:24:39.958Z,1002.53
2019-05-21T08:25:40.001Z,1002.56
2019-05-21T08:26:39.933Z,1002.53
2019-05-21T08:27:40.095Z,1002.54
2019-05-21T08:28:39.911Z,1002.47
2019-05-21T08:29:39.922Z,1002.56
2019-05-21T08:30:39.887Z,1002.58
2019-05-21T08:31:39.874Z,1002.51
2019-05-21T08:32:39.892Z,1002.55
2019-05-21T08:33:40.015Z,1002.61
2019-05-21T08:34:39.844Z,1002.57
2019-05-21T08:35:39.830Z,1002.61
2019-05-21T08:36:39.819Z,1002.61
2019-05-21T08:37:39.935Z,1002.64
2019-05-21T08:38:39.796Z,1002.68
2019-05-21T08:39:39.786Z,1002.70
2019-05-21T08:40:39.771Z,1002.66
2019-05-21T08:41:39.761Z,1002.72
2019-05-21T08:42:39.796Z,1002.69
2019-05-21T08:43:39.775Z,1002.68
2019-05-21T08:44:39.731Z,1002.66
2019-05-21T08:45:39.720Z,1002.68
2019-05-21T08:46:39.705Z,1002.75
2019-05-21T08:47:39.701Z,1002.80
2019-05-21T08:48:39.727Z,1002.75
2019-05-21T08:49:39.677Z,1002.78
2019-05-21T08:50:39.711Z,1002.77
2019-05-21T08:51:39.689Z,1002.76
2019-05-21T08:52:39.712Z,1002.79
2019-05-21T08:53:39.648Z,1002.82
2019-05-21T08:54:39.616Z,1002.70
2019-05-21T08:55:39.603Z,1002.75
2019-05-21T08:56:39.683Z,1002.83
2019-05-21T08:57:39.587Z,1002.81
2019-05-21T08:58:39.615Z,1002.84
2019-05-21T08:59:39.558Z,1002.82
2019-05-21T09:00:39.619Z,1002.85
2019-05-21T09:01:39.538Z,1002.87
2019-05-21T09:02:39.541Z,1002.90
2019-05-21T09:03:39.536Z,1002.89
2019-05-21T09:04:46.430Z,1002.89
2019-05-21T09:05:40.482Z,1002.91
2019-05-21T09:06:39.481Z,1002.91
2019-05-21T09:07:39.470Z,1002.92
2019-05-21T09:08:39.481Z,1002.91
2019-05-21T09:09:50.052Z,1002.94
2019-05-21T09:10:40.436Z,1002.96
2019-05-21T09:11:39.416Z,1002.99
2019-05-21T09:12:39.404Z,1003.02
2019-05-21T09:13:39.419Z,1003.05
2019-05-21T09:14:39.401Z,1003.05
2019-05-21T09:15:39.382Z,1003.01
2019-05-21T09:16:39.369Z,1002.99
2019-05-21T09:17:39.354Z,1003.05
2019-05-21T09:18:39.370Z,1003.08
2019-05-21T09:19:39.335Z,1003.11
2019-05-21T09:20:39.329Z,1003.07
2019-05-21T09:21:39.317Z,1003.09
2019-05-21T09:22:39.293Z,1003.04
2019-05-21T09:23:39.296Z,1003.13
2019-05-21T09:24:39.301Z,1003.05
2019-05-21T09:25:39.359Z,1003.08
2019-05-21T09:26:39.248Z,1003.10
2019-05-21T09:27:39.241Z,1003.13
2019-05-21T09:28:39.229Z,1003.15
2019-05-21T09:29:39.259Z,1003.14
2019-05-21T09:30:39.203Z,1003.13
2019-05-21T09:31:39.196Z,1003.15
2019-05-21T09:32:39.181Z,1003.19
2019-05-21T09:33:39.176Z,1003.27
2019-05-21T09:34:48.897Z,1003.32
2019-05-21T09:35:40.172Z,1003.27
2019-05-21T09:36:39.140Z,1003.24
2019-05-21T09:37:39.132Z,1003.32
2019-05-21T09:38:39.121Z,1003.29
2019-05-21T09:39:39.153Z,1003.29
2019-05-21T09:40:39.118Z,1003.30
2019-05-21T09:41:39.084Z,1003.29
2019-05-21T09:42:39.237Z,1003.30
2019-05-21T09:43:39.061Z,1003.24
2019-05-21T09:44:39.072Z,1003.26
2019-05-21T09:45:39.130Z,1003.25
2019-05-21T09:46:39.068Z,1003.26
2019-05-21T09:47:39.014Z,1003.26
2019-05-21T09:48:39.005Z,1003.29
2019-05-21T09:49:39.033Z,1003.32
2019-05-21T09:50:39.082Z,1003.31
2019-05-21T09:51:38.990Z,1003.32
2019-05-21T09:52:38.964Z,1003.34
2019-05-21T09:53:38.941Z,1003.33
2019-05-21T09:54:38.943Z,1003.36
2019-05-21T09:55:38.944Z,1003.35
2019-05-21T09:56:38.909Z,1003.36
2019-05-21T09:57:38.894Z,1003.36
2019-05-21T09:58:38.883Z,1003.41
2019-05-21T09:59:38.873Z,1003.32
2019-05-21T10:00:38.931Z,1003.30
2019-05-21T10:01:38.865Z,1003.31
2019-05-21T10:02:38.844Z,1003.35
2019-05-21T10:03:38.858Z,1003.40
2019-05-21T10:04:38.834Z,1003.32
2019-05-21T10:05:38.844Z,1003.34
2019-05-21T10:06:38.796Z,1003.35
2019-05-21T10:07:40.547Z,1003.36
2019-05-21T10:08:38.779Z,1003.34
2019-05-21T10:09:38.771Z,1003.43
2019-05-21T10:10:38.808Z,1003.43
2019-05-21T10:11:38.746Z,1003.38
2019-05-21T10:12:38.740Z,1003.47
2019-05-21T10:13:38.723Z,1003.43
2019-05-21T10:14:38.708Z,1003.45
2019-05-21T10:15:38.861Z,1003.50
2019-05-21T10:16:38.688Z,1003.50
2019-05-21T10:17:38.682Z,1003.46
2019-05-21T10:18:38.658Z,1003.51
2019-05-21T10:19:38.648Z,1003.50
2019-05-21T10:20:38.667Z,1003.59
2019-05-21T10:21:38.628Z,1003.60
2019-05-21T10:22:38.607Z,1003.59
2019-05-21T10:23:38.607Z,1003.61
2019-05-21T10:24:38.600Z,1003.62
2019-05-21T10:25:38.612Z,1003.62
2019-05-21T10:26:38.586Z,1003.73
2019-05-21T10:27:38.555Z,1003.72
2019-05-21T10:28:38.563Z,1003.71
2019-05-21T10:29:38.534Z,1003.76
2019-05-21T10:30:38.516Z,1003.73
2019-05-21T10:31:38.559Z,1003.80
2019-05-21T10:32:38.500Z,1003.80
2019-05-21T10:33:38.482Z,1003.73
2019-05-21T10:34:38.471Z,1003.80
2019-05-21T10:35:38.464Z,1003.90
2019-05-21T10:36:38.476Z,1003.87
2019-05-21T10:37:52.604Z,1003.86
2019-05-21T10:38:39.426Z,1003.89
2019-05-21T10:39:38.433Z,1003.89
2019-05-21T10:40:38.411Z,1003.91
2019-05-21T10:41:38.429Z,1003.88
2019-05-21T10:42:38.407Z,1003.88
2019-05-21T10:43:38.369Z,1003.85
2019-05-21T10:44:38.356Z,1003.92
2019-05-21T10:45:38.363Z,1003.94
2019-05-21T10:46:38.363Z,1003.90
2019-05-21T10:47:38.351Z,1003.91
2019-05-21T10:48:38.311Z,1003.96
2019-05-21T10:49:38.300Z,1003.93
2019-05-21T10:50:38.302Z,1004.03
2019-05-21T10:51:38.280Z,1004.00
2019-05-21T10:52:38.301Z,1004.01
2019-05-21T10:53:38.319Z,1004.03
2019-05-21T10:54:38.275Z,1004.08
2019-05-21T10:55:38.232Z,1004.07
2019-05-21T10:56:47.231Z,1004.06
2019-05-21T10:57:39.258Z,1004.06
2019-05-21T10:58:38.212Z,1004.09
2019-05-21T10:59:38.195Z,1004.12
2019-05-21T11:00:38.173Z,1004.10
2019-05-21T11:01:38.167Z,1004.12
2019-05-21T11:02:38.179Z,1004.07
2019-05-21T11:03:38.149Z,1004.08
2019-05-21T11:04:38.133Z,1004.12
2019-05-21T11:05:38.118Z,1004.09
2019-05-21T11:06:38.143Z,1004.14
2019-05-21T11:07:38.129Z,1004.17
2019-05-21T11:08:38.107Z,1004.16
2019-05-21T11:09:38.073Z,1004.18
2019-05-21T11:10:38.085Z,1004.18
2019-05-21T11:11:38.060Z,1004.24
2019-05-21T11:12:38.068Z,1004.22
2019-05-21T11:13:38.054Z,1004.27
2019-05-21T11:14:38.016Z,1004.24
2019-05-21T11:15:38.008Z,1004.28
2019-05-21T11:16:38.018Z,1004.22
2019-05-21T11:17:50.048Z,1004.26
2019-05-21T11:18:38.970Z,1004.29
2019-05-21T11:19:37.968Z,1004.25
2019-05-21T11:20:37.958Z,1004.25
2019-05-21T11:21:37.944Z,1004.29
2019-05-21T11:22:37.973Z,1004.28
2019-05-21T11:23:37.918Z,1004.29
2019-05-21T11:24:37.903Z,1004.31
2019-05-21T11:25:37.890Z,1004.33
2019-05-21T11:26:37.899Z,1004.33
2019-05-21T11:27:37.899Z,1004.36
2019-05-21T11:28:37.859Z,1004.33
2019-05-21T11:29:37.855Z,1004.40
2019-05-21T11:30:37.839Z,1004.43
2019-05-21T11:31:37.836Z,1004.46
2019-05-21T11:32:37.848Z,1004.48
2019-05-21T11:33:37.807Z,1004.51
2019-05-21T11:34:37.807Z,1004.51
2019-05-21T11:35:37.787Z,1004.48
2019-05-21T11:36:37.772Z,1004.56
2019-05-21T11:37:37.778Z,1004.56
2019-05-21T11:38:40.230Z,1004.52
2019-05-21T11:39:37.732Z,1004.59
2019-05-21T11:40:37.831Z,1004.58
2019-05-21T11:41:37.707Z,1004.58
2019-05-21T11:42:37.915Z,1004.57
2019-05-21T11:43:37.686Z,1004.58
2019-05-21T11:44:37.758Z,1004.62
2019-05-21T11:45:37.678Z,1004.62
2019-05-21T11:46:37.761Z,1004.65
2019-05-21T11:47:37.645Z,1004.66
2019-05-21T11:48:37.689Z,1004.68
2019-05-21T11:49:37.631Z,1004.66
2019-05-21T11:50:37.604Z,1004.66
2019-05-21T11:51:37.601Z,1004.68
2019-05-21T11:52:37.584Z,1004.69
2019-05-21T11:53:37.606Z,1004.65
2019-05-21T11:54:37.558Z,1004.72
2019-05-21T11:55:37.553Z,1004.69
2019-05-21T11:56:37.557Z,1004.73
2019-05-21T11:57:37.530Z,1004.68
2019-05-21T11:58:39.694Z,1004.63
2019-05-21T11:59:37.506Z,1004.70
2019-05-21T12:00:37.511Z,1004.67
2019-05-21T12:01:37.489Z,1004.68
2019-05-21T12:02:37.475Z,1004.75
2019-05-21T12:03:37.492Z,1004.72
2019-05-21T12:04:37.445Z,1004.78
2019-05-21T12:05:37.442Z,1004.73
2019-05-21T12:06:37.426Z,1004.77
2019-05-21T12:07:37.412Z,1004.76